createdAt,value
2017-11-01T00:00:44.030Z,76.2
2017-11-01T00:01:43.167Z,75.8
2017-11-01T00:02:42.314Z,75.8
2017-11-01T00:03:41.322Z,76.1
2017-11-01T00:04:40.835Z,75.5
2017-11-01T00:05:39.477Z,75
2017-11-01T00:06:38.635Z,75
2017-11-01T00:07:37.652Z,75.2
2017-11-01T00:08:36.795Z,75.2
2017-11-01T00:09:35.953Z,75.1
2017-11-01T00:10:34.970Z,75.2
2017-11-01T00:11:34.264Z,75.5
2017-11-01T00:12:33.416Z,75
2017-11-01T00:13:32.299Z,74.7
2017-11-01T00:14:31.653Z,74.9
2017-11-01T00:15:30.538Z,75
2017-11-01T00:16:29.930Z,75.1
2017-11-01T00:17:28.818Z,75.2
2017-11-01T00:18:27.963Z,75
2017-11-01T00:19:26.842Z,75.2
2017-11-01T00:20:26.124Z,74.7
2017-11-01T00:21:25.403Z,74.5
2017-11-01T00:22:24.412Z,74.3
2017-11-01T00:23:23.425Z,74.3
2017-11-01T00:24:22.603Z,74.4
2017-11-01T00:25:21.486Z,74.2
2017-11-01T00:26:20.999Z,75
2017-11-01T00:27:20.284Z,74.5
2017-11-01T00:28:18.933Z,74.6
2017-11-01T00:29:17.945Z,74.7
2017-11-01T00:30:17.590Z,75
2017-11-01T00:31:16.506Z,74.5
2017-11-01T00:32:15.387Z,74.6
2017-11-01T00:33:14.528Z,74.4
2017-11-01T00:34:13.909Z,74.4
2017-11-01T00:35:13.181Z,74.5
2017-11-01T00:36:11.926Z,74.8
2017-11-01T00:37:10.948Z,74.4
2017-11-01T00:38:10.325Z,74.3
2017-11-01T00:39:09.204Z,74.4
2017-11-01T00:40:08.601Z,74.2
2017-11-01T00:42:06.636Z,74
2017-11-01T00:43:05.881Z,74.3
2017-11-01T00:44:04.625Z,74.2
2017-11-01T00:45:04.139Z,74.1
2017-11-01T00:46:03.019Z,74.4
2017-11-01T00:47:02.293Z,74.7
2017-11-01T00:48:01.446Z,74.8
2017-11-01T00:49:00.594Z,74.6
2017-11-01T00:49:59.496Z,74.4
2017-11-01T00:50:58.479Z,74.5
2017-11-01T00:51:57.866Z,74.4
2017-11-01T00:52:56.882Z,74.9
2017-11-01T00:53:55.667Z,74.9
2017-11-01T00:54:54.942Z,74.9
2017-11-01T00:55:54.092Z,74.7
2017-11-01T00:56:53.295Z,74.7
2017-11-01T00:57:52.183Z,74.8
2017-11-01T00:58:51.705Z,74.5
2017-11-01T00:59:50.855Z,74.8
2017-11-01T01:00:49.763Z,74.3
2017-11-01T01:01:48.768Z,74.9
2017-11-01T01:02:47.778Z,74.9
2017-11-01T01:03:46.787Z,74.7
2017-11-01T01:04:46.047Z,74.7
2017-11-01T01:05:45.063Z,74.8
2017-11-01T01:06:15.515Z,74.8
2017-11-01T01:07:43.579Z,75.2
2017-11-01T01:08:42.591Z,74.9
2017-11-01T01:09:41.601Z,74.8
2017-11-01T01:10:40.749Z,75
2017-11-01T01:11:40.163Z,74.8
2017-11-01T01:12:39.046Z,74.9
2017-11-01T01:13:38.318Z,75
2017-11-01T01:14:37.468Z,75.1
2017-11-01T01:15:36.106Z,75.1
2017-11-01T01:16:35.251Z,75
2017-11-01T01:17:34.915Z,74.9
2017-11-01T01:18:33.686Z,74.7
2017-11-01T01:19:32.701Z,74.7
2017-11-01T01:20:31.850Z,75
2017-11-01T01:21:31.094Z,74.9
2017-11-01T01:22:30.101Z,74.9
2017-11-01T01:23:29.483Z,74.9
2017-11-01T01:24:28.124Z,74.7
2017-11-01T01:25:27.792Z,75
2017-11-01T01:26:26.714Z,75.2
2017-11-01T01:27:25.462Z,74.9
2017-11-01T01:29:24.004Z,74.9
2017-11-01T01:30:23.148Z,75
2017-11-01T01:31:22.165Z,74.9
2017-11-01T01:32:21.454Z,74.8
2017-11-01T01:33:20.327Z,74.6
2017-11-01T01:34:19.744Z,75
2017-11-01T01:35:18.910Z,75
2017-11-01T01:36:17.555Z,74.9
2017-11-01T01:37:17.065Z,74.9
2017-11-01T01:38:16.213Z,74.9
2017-11-01T01:39:14.870Z,74.7
2017-11-01T01:40:13.884Z,74.9
2017-11-01T01:41:13.546Z,75.1
2017-11-01T01:42:12.454Z,75.1
2017-11-01T01:43:11.360Z,74.8
2017-11-01T01:44:10.503Z,75.2
2017-11-01T01:45:09.661Z,75.2
2017-11-01T01:46:08.940Z,75
2017-11-01T01:47:07.953Z,75.6
2017-11-01T01:48:07.368Z,74.9
2017-11-01T01:48:37.570Z,74.9
2017-11-01T01:49:07.901Z,75.3
2017-11-01T01:50:05.314Z,75.4
2017-11-01T01:51:04.366Z,75.2
2017-11-01T01:52:03.763Z,75.2
2017-11-01T01:53:02.411Z,75.3
2017-11-01T01:55:00.811Z,75.4
2017-11-01T01:55:59.827Z,75.1
2017-11-01T01:56:59.234Z,75
2017-11-01T01:57:58.386Z,75.3
2017-11-01T01:58:57.024Z,75.5
2017-11-01T01:59:56.545Z,75.3
2017-11-01T02:00:55.689Z,75.3
2017-11-01T02:01:54.604Z,75.3
2017-11-01T02:02:53.899Z,75.5
2017-11-01T02:03:52.813Z,75.7
2017-11-01T02:04:51.954Z,76
2017-11-01T02:05:51.103Z,75.4
2017-11-01T02:06:50.380Z,75.1
2017-11-01T02:07:49.266Z,74.7
2017-11-01T02:08:48.292Z,74.9
2017-11-01T02:09:47.807Z,74.7
2017-11-01T02:11:45.841Z,74.6
2017-11-01T02:12:44.853Z,75
2017-11-01T02:13:44.143Z,74.9
2017-11-01T02:14:42.876Z,75.2
2017-11-01T02:15:42.021Z,75
2017-11-01T02:16:41.176Z,75.1
2017-11-01T02:17:40.327Z,75.2
2017-11-01T02:18:39.609Z,75.4
2017-11-01T02:19:38.498Z,75.4
2017-11-01T02:20:37.641Z,75.7
2017-11-01T02:21:36.918Z,75.8
2017-11-01T02:22:35.829Z,75.8
2017-11-01T02:23:34.845Z,76.2
2017-11-01T02:24:34.365Z,75.9
2017-11-01T02:25:33.282Z,76.2
2017-11-01T02:26:32.292Z,76.4
2017-11-01T02:27:31.679Z,76.7
2017-11-01T02:28:30.958Z,76.6
2017-11-01T02:29:29.723Z,76.7
2017-11-01T02:30:29.145Z,76.9
2017-11-01T02:31:28.311Z,77
2017-11-01T02:32:26.967Z,77
2017-11-01T02:33:26.117Z,77.5
2017-11-01T02:34:25.407Z,77.3
2017-11-01T02:35:24.578Z,77.6
2017-11-01T02:36:23.473Z,77.9
2017-11-01T02:37:22.491Z,77.8
2017-11-01T02:38:21.916Z,77.9
2017-11-01T02:39:21.061Z,77.9
2017-11-01T02:42:17.977Z,78.2
2017-11-01T02:43:17.493Z,78.2
2017-11-01T02:44:16.266Z,78.5
2017-11-01T02:45:15.652Z,78.6
2017-11-01T02:46:14.584Z,78.6
2017-11-01T02:47:13.735Z,78.8
2017-11-01T02:48:12.613Z,78.6
2017-11-01T02:50:53.767Z,79.2
2017-11-01T02:53:08.407Z,79.3
2017-11-01T02:54:07.700Z,79.3
2017-11-01T02:55:06.728Z,79.5
2017-11-01T02:56:05.889Z,79.9
2017-11-01T02:57:04.665Z,79.4
2017-11-01T02:58:03.952Z,79.6
2017-11-01T02:59:02.973Z,79.8
2017-11-01T03:00:02.412Z,79.9
2017-11-01T03:01:01.313Z,80.1
2017-11-01T03:02:00.601Z,80
2017-11-01T03:02:59.372Z,80.1
2017-11-01T03:03:58.510Z,80.3
2017-11-01T03:04:57.518Z,80.5
2017-11-01T03:05:56.823Z,80.7
2017-11-01T03:06:55.967Z,80.8
2017-11-01T03:07:55.252Z,81.6
2017-11-01T03:08:25.586Z,81.6
2017-11-01T03:08:56.041Z,81.5
2017-11-01T03:09:53.448Z,81.7
2017-11-01T03:10:52.222Z,81.5
2017-11-01T03:11:51.502Z,82.1
2017-11-01T03:12:50.650Z,81.9
2017-11-01T03:13:49.547Z,82.4
2017-11-01T03:14:48.554Z,82.7
2017-11-01T03:15:48.201Z,82.7
2017-11-01T03:16:47.120Z,83
2017-11-01T03:17:45.872Z,83.1
2017-11-01T03:19:44.273Z,83.7
2017-11-01T03:20:43.546Z,83.8
2017-11-01T03:21:42.690Z,84
2017-11-01T03:22:41.701Z,83.9
2017-11-01T03:23:40.585Z,84.6
2017-11-01T03:24:39.734Z,84
2017-11-01T03:25:39.010Z,84.2
2017-11-01T03:26:38.165Z,84.5
2017-11-01T03:27:37.304Z,84.6
2017-11-01T03:28:36.179Z,84.6
2017-11-01T03:29:35.567Z,84.7
2017-11-01T03:30:34.587Z,85
2017-11-01T03:31:33.604Z,85
2017-11-01T03:32:32.751Z,85.3
2017-11-01T03:33:31.896Z,85.2
2017-11-01T03:34:30.923Z,85.4
2017-11-01T03:35:30.173Z,85.3
2017-11-01T03:36:29.322Z,85.3
2017-11-01T03:37:28.470Z,85.7
2017-11-01T03:38:27.480Z,85.5
2017-11-01T03:39:26.759Z,85.5
2017-11-01T03:40:25.402Z,85.4
2017-11-01T03:41:24.407Z,86.1
2017-11-01T03:42:23.922Z,86.4
2017-11-01T03:43:22.936Z,85.6
2017-11-01T03:45:20.826Z,86.1
2017-11-01T03:46:20.345Z,86.2
2017-11-01T03:47:19.491Z,86.5
2017-11-01T03:48:18.640Z,86.5
2017-11-01T03:49:17.416Z,86.6
2017-11-01T03:50:16.427Z,86.6
2017-11-01T03:51:15.572Z,86.4
2017-11-01T03:52:14.977Z,86.5
2017-11-01T03:53:13.615Z,86.5
2017-11-01T03:54:12.757Z,86.7
2017-11-01T03:55:12.025Z,86.5
2017-11-01T03:56:11.170Z,86.6
2017-11-01T03:57:10.192Z,86.4
2017-11-01T03:58:09.497Z,86.5
2017-11-01T03:59:08.787Z,86.7
2017-11-01T04:00:07.569Z,86.8
2017-11-01T04:01:06.853Z,86.7
2017-11-01T04:02:05.744Z,86.6
2017-11-01T04:03:04.758Z,87.2
2017-11-01T04:05:03.052Z,87.1
2017-11-01T04:06:01.947Z,86.6
2017-11-01T04:07:01.229Z,87
2017-11-01T04:08:00.643Z,86.3
2017-11-01T04:08:59.650Z,86.4
2017-11-01T04:09:58.660Z,86.6
2017-11-01T04:10:57.959Z,87.1
2017-11-01T04:11:56.987Z,87
2017-11-01T04:12:56.020Z,87
2017-11-01T04:13:55.181Z,87.2
2017-11-01T04:15:52.943Z,87
2017-11-01T04:16:52.327Z,87
2017-11-01T04:17:51.471Z,87.3
2017-11-01T04:18:50.623Z,87.3
2017-11-01T04:19:49.768Z,87.6
2017-11-01T04:20:48.536Z,87.3
2017-11-01T04:21:48.070Z,87.6
2017-11-01T04:22:47.088Z,87.3
2017-11-01T04:23:45.728Z,87.4
2017-11-01T04:24:45.118Z,87.5
2017-11-01T04:25:44.003Z,87.7
2017-11-01T04:26:43.518Z,87.9
2017-11-01T04:27:42.157Z,88
2017-11-01T04:28:41.165Z,87.6
2017-11-01T04:29:40.811Z,88.1
2017-11-01T04:30:39.729Z,88.3
2017-11-01T04:31:38.899Z,88.6
2017-11-01T04:32:38.180Z,88.2
2017-11-01T04:33:37.066Z,88.1
2017-11-01T04:34:36.093Z,88
2017-11-01T04:35:35.405Z,88.1
2017-11-01T04:37:33.565Z,88.2
2017-11-01T04:38:32.225Z,88
2017-11-01T04:39:31.491Z,88.2
2017-11-01T04:40:30.626Z,88.9
2017-11-01T04:41:29.634Z,88.7
2017-11-01T04:42:28.650Z,88.6
2017-11-01T04:43:28.073Z,88.8
2017-11-01T04:44:27.216Z,88.9
2017-11-01T04:45:26.233Z,89.2
2017-11-01T04:46:25.371Z,89.2
2017-11-01T04:47:24.251Z,89.1
2017-11-01T04:48:23.395Z,89.1
2017-11-01T04:49:22.273Z,89.3
2017-11-01T04:50:21.928Z,89.5
2017-11-01T04:51:20.833Z,89.4
2017-11-01T04:52:19.614Z,89.3
2017-11-01T04:53:18.622Z,89.4
2017-11-01T04:54:18.130Z,89.5
2017-11-01T04:54:48.733Z,89.5
2017-11-01T04:55:19.058Z,89.8
2017-11-01T04:55:49.517Z,89.8
2017-11-01T04:56:20.346Z,89.8
2017-11-01T04:57:15.331Z,89.8
2017-11-01T04:58:14.354Z,90.2
2017-11-01T05:00:12.378Z,90.4
2017-11-01T05:01:11.782Z,90.7
2017-11-01T05:02:10.927Z,91
2017-11-01T05:03:09.830Z,90.9
2017-11-01T05:04:08.710Z,90.9
2017-11-01T05:05:08.235Z,91
2017-11-01T05:06:07.241Z,91.1
2017-11-01T05:07:06.389Z,91.2
2017-11-01T05:08:05.405Z,91.4
2017-11-01T05:09:04.416Z,91.6
2017-11-01T05:10:03.561Z,91.8
2017-11-01T05:11:02.840Z,91.9
2017-11-01T05:12:01.866Z,92
2017-11-01T05:13:01.154Z,92.3
2017-11-01T05:13:59.804Z,92.5
2017-11-01T05:14:58.817Z,92.4
2017-11-01T05:15:57.844Z,92.7
2017-11-01T05:16:57.369Z,93
2017-11-01T05:17:56.388Z,93.1
2017-11-01T05:18:55.276Z,93.3
2017-11-01T05:19:54.555Z,93.4
2017-11-01T05:20:53.586Z,93.5
2017-11-01T05:21:52.730Z,93.6
2017-11-01T05:22:51.751Z,93.7
2017-11-01T05:23:51.025Z,93.8
2017-11-01T05:24:50.172Z,93.9
2017-11-01T05:25:48.820Z,94.1
2017-11-01T05:26:48.104Z,94.3
2017-11-01T05:27:46.985Z,94.5
2017-11-01T05:29:45.391Z,94.6
2017-11-01T05:30:44.673Z,94.7
2017-11-01T05:31:43.552Z,94.7
2017-11-01T05:32:42.561Z,94.7
2017-11-01T05:33:41.482Z,94.8
2017-11-01T05:34:11.805Z,94.8
2017-11-01T05:34:42.132Z,94.9
2017-11-01T05:35:12.960Z,94.9
2017-11-01T05:35:43.410Z,95
2017-11-01T05:36:14.108Z,95
2017-11-01T05:36:44.562Z,95.1
2017-11-01T05:37:15.017Z,95.1
2017-11-01T05:39:36.455Z,94.5
2017-11-01T05:40:35.336Z,94.6
2017-11-01T05:41:34.346Z,94.6
2017-11-01T05:42:33.620Z,94.5
2017-11-01T05:43:32.764Z,94.6
2017-11-01T05:44:31.530Z,94.5
2017-11-01T05:45:30.811Z,94.4
2017-11-01T05:46:01.264Z,94.4
2017-11-01T05:46:31.492Z,94.1
2017-11-01T05:47:01.955Z,94.1
2017-11-01T05:47:32.413Z,94
2017-11-01T05:48:02.738Z,94
2017-11-01T05:49:27.550Z,94.1
2017-11-01T05:50:26.194Z,94.2
2017-11-01T05:51:25.333Z,94.2
2017-11-01T05:52:24.582Z,94.2
2017-11-01T05:53:23.491Z,93.9
2017-11-01T05:54:23.009Z,93.9
2017-11-01T05:55:21.894Z,94
2017-11-01T05:56:20.776Z,94
2017-11-01T05:57:20.068Z,93.9
2017-11-01T05:58:18.949Z,94
2017-11-01T05:59:18.334Z,93.9
2017-11-01T06:00:16.979Z,93.7
2017-11-01T06:01:16.259Z,93.5
2017-11-01T06:02:15.515Z,93.4
2017-11-01T06:03:14.809Z,93.4
2017-11-01T06:04:13.562Z,93.3
2017-11-01T06:05:12.856Z,93.2
2017-11-01T06:06:11.739Z,93.2
2017-11-01T06:07:11.132Z,93.2
2017-11-01T06:08:10.041Z,92.6
2017-11-01T06:09:08.946Z,92.8
2017-11-01T06:10:08.113Z,92.5
2017-11-01T06:11:07.136Z,92.4
2017-11-01T06:12:06.431Z,92.4
2017-11-01T06:13:05.571Z,92.3
2017-11-01T06:14:04.445Z,92.4
2017-11-01T06:15:03.596Z,92.5
2017-11-01T06:16:03.004Z,92.4
2017-11-01T06:16:33.457Z,92.4
2017-11-01T06:17:04.285Z,92.4
2017-11-01T06:17:34.870Z,92.4
2017-11-01T06:18:05.093Z,92.2
2017-11-01T06:18:35.415Z,92.2
2017-11-01T06:19:59.088Z,92.2
2017-11-01T06:20:58.120Z,92.3
2017-11-01T06:21:57.272Z,92.4
2017-11-01T06:22:56.151Z,92.4
2017-11-01T06:23:55.300Z,92.1
2017-11-01T06:24:54.549Z,91.9
2017-11-01T06:25:53.558Z,92.1
2017-11-01T06:26:24.021Z,92.1
2017-11-01T06:26:54.344Z,92.2
2017-11-01T06:27:24.906Z,92.2
2017-11-01T06:27:55.360Z,92.2
2017-11-01T06:28:25.685Z,92.2
2017-11-01T06:29:49.731Z,92.1
2017-11-01T06:30:49.033Z,92.3
2017-11-01T06:32:47.421Z,92.3
2017-11-01T06:33:46.060Z,92.2
2017-11-01T06:34:45.570Z,92.2
2017-11-01T06:35:44.711Z,92.2
2017-11-01T06:36:43.485Z,92.4
2017-11-01T06:37:42.789Z,92.1
2017-11-01T06:38:41.803Z,92.2
2017-11-01T06:39:40.822Z,92.1
2017-11-01T06:40:39.830Z,92.3
2017-11-01T06:41:38.981Z,92.4
2017-11-01T06:42:37.861Z,92.1
2017-11-01T06:43:37.375Z,91.9
2017-11-01T06:44:36.655Z,91.5
2017-11-01T06:45:35.390Z,91.7
2017-11-01T06:46:34.412Z,91.7
2017-11-01T06:47:33.556Z,92.1
2017-11-01T06:48:32.828Z,91.6
2017-11-01T06:49:31.985Z,91.6
2017-11-01T06:50:30.761Z,91.5
2017-11-01T06:51:30.282Z,91.1
2017-11-01T06:52:29.058Z,91.3
2017-11-01T06:53:28.204Z,91.1
2017-11-01T06:54:27.487Z,91.4
2017-11-01T06:55:26.263Z,91.7
2017-11-01T06:56:25.287Z,91.7
2017-11-01T06:57:24.830Z,91.5
2017-11-01T06:58:23.342Z,91.4
2017-11-01T06:59:22.500Z,91.4
2017-11-01T07:00:21.526Z,91.5
2017-11-01T07:01:20.922Z,91.5
2017-11-01T07:02:19.944Z,91.4
2017-11-01T07:03:19.105Z,91.5
2017-11-01T07:04:17.990Z,91.7
2017-11-01T07:05:17.515Z,91.6
2017-11-01T07:06:16.401Z,91.9
2017-11-01T07:07:15.434Z,91.9
2017-11-01T07:08:14.315Z,91.6
2017-11-01T07:09:13.602Z,91.7
2017-11-01T07:10:12.767Z,91.5
2017-11-01T07:12:10.932Z,91
2017-11-01T07:13:09.816Z,91.1
2017-11-01T07:14:08.965Z,91.2
2017-11-01T07:15:08.479Z,91.4
2017-11-01T07:16:07.384Z,91.3
2017-11-01T07:17:06.530Z,91.2
2017-11-01T07:18:05.681Z,91.2
2017-11-01T07:19:04.692Z,91.2
2017-11-01T07:20:03.717Z,90.8
2017-11-01T07:22:01.743Z,91.1
2017-11-01T07:23:00.883Z,90.8
2017-11-01T07:23:59.889Z,91
2017-11-01T07:24:59.049Z,91.2
2017-11-01T07:25:58.430Z,91.3
2017-11-01T07:26:57.565Z,91.5
2017-11-01T07:27:56.576Z,91.2
2017-11-01T07:28:55.714Z,91.5
2017-11-01T07:29:54.856Z,90.8
2017-11-01T07:30:53.501Z,90.7
2017-11-01T07:31:52.641Z,91.1
2017-11-01T07:32:51.782Z,90.8
2017-11-01T07:33:50.940Z,91.1
2017-11-01T07:34:50.099Z,91.2
2017-11-01T07:35:49.110Z,91.2
2017-11-01T07:36:48.123Z,91.4
2017-11-01T07:37:47.158Z,91.1
2017-11-01T07:38:46.304Z,91.2
2017-11-01T07:39:45.326Z,91
2017-11-01T07:40:44.714Z,90.9
2017-11-01T07:41:43.861Z,91.1
2017-11-01T07:42:43.004Z,91.1
2017-11-01T07:43:42.146Z,91.2
2017-11-01T07:44:41.295Z,91.2
2017-11-01T07:45:39.946Z,91
2017-11-01T07:46:39.223Z,91.2
2017-11-01T07:48:37.496Z,91.3
2017-11-01T07:49:36.751Z,91.6
2017-11-01T07:50:35.665Z,91.6
2017-11-01T07:51:34.923Z,91.5
2017-11-01T07:53:32.834Z,91.4
2017-11-01T07:54:31.988Z,91.3
2017-11-01T07:55:30.960Z,91.4
2017-11-01T07:56:30.108Z,91.4
2017-11-01T07:57:29.389Z,91.4
2017-11-01T07:58:28.542Z,91.1
2017-11-01T07:59:27.820Z,91.2
2017-11-01T08:00:26.840Z,91.3
2017-11-01T08:01:26.037Z,91.1
2017-11-01T08:02:24.837Z,91.3
2017-11-01T08:02:55.535Z,91.3
2017-11-01T08:03:25.991Z,91.6
2017-11-01T08:03:56.448Z,91.6
2017-11-01T08:04:26.775Z,91.4
2017-11-01T08:04:57.106Z,91.4
2017-11-01T08:06:21.408Z,91.4
2017-11-01T08:07:20.549Z,91.6
2017-11-01T08:08:19.563Z,91.7
2017-11-01T08:09:18.852Z,91.8
2017-11-01T08:10:17.624Z,91.9
2017-11-01T08:11:16.766Z,91.8
2017-11-01T08:12:15.777Z,91.8
2017-11-01T08:13:14.792Z,92.1
2017-11-01T08:14:13.937Z,91.8
2017-11-01T08:15:12.990Z,91.7
2017-11-01T08:16:12.383Z,91.8
2017-11-01T08:17:11.655Z,92.1
2017-11-01T08:18:10.698Z,91.8
2017-11-01T08:19:09.717Z,92.2
2017-11-01T08:20:08.875Z,91.9
2017-11-01T08:21:07.886Z,92.3
2017-11-01T08:22:06.818Z,92.6
2017-11-01T08:23:05.835Z,92.9
2017-11-01T08:24:04.980Z,92.9
2017-11-01T08:25:04.501Z,93.2
2017-11-01T08:26:03.149Z,93.2
2017-11-01T08:27:02.294Z,93.2
2017-11-01T08:28:01.175Z,93.5
2017-11-01T08:29:00.325Z,93.6
2017-11-01T08:29:59.733Z,93.8
2017-11-01T08:30:58.751Z,94
2017-11-01T08:31:57.898Z,93.9
2017-11-01T08:32:57.037Z,94.1
2017-11-01T08:33:56.190Z,94.2
2017-11-01T08:34:55.104Z,94.1
2017-11-01T08:35:54.245Z,94.1
2017-11-01T08:36:53.391Z,94.3
2017-11-01T08:37:52.409Z,94.5
2017-11-01T08:38:51.791Z,94.6
2017-11-01T08:39:50.929Z,94.9
2017-11-01T08:40:49.938Z,94.9
2017-11-01T08:41:49.029Z,95
2017-11-01T08:42:47.935Z,94.9
2017-11-01T08:43:47.084Z,94.7
2017-11-01T08:44:46.101Z,94.6
2017-11-01T08:45:16.559Z,94.6
2017-11-01T08:45:46.878Z,94.8
2017-11-01T08:46:17.069Z,94.8
2017-11-01T08:47:43.630Z,94.9
2017-11-01T08:48:42.772Z,94.5
2017-11-01T08:49:41.680Z,94.6
2017-11-01T08:50:40.696Z,94.8
2017-11-01T08:51:40.214Z,94.7
2017-11-01T08:52:38.960Z,94.6
2017-11-01T08:53:38.111Z,94.6
2017-11-01T08:54:37.128Z,94.8
2017-11-01T08:55:36.281Z,94.9
2017-11-01T08:56:06.496Z,94.9
2017-11-01T08:56:36.698Z,95
2017-11-01T08:57:07.027Z,95
2017-11-01T08:58:33.987Z,95.2
2017-11-01T08:59:32.503Z,95.5
2017-11-01T09:00:31.779Z,95.3
2017-11-01T09:01:30.930Z,95.4
2017-11-01T09:02:30.335Z,95.5
2017-11-01T09:03:29.357Z,95.7
2017-11-01T09:04:28.515Z,96
2017-11-01T09:05:27.293Z,96
2017-11-01T09:06:26.449Z,96.1
2017-11-01T09:07:25.856Z,96.1
2017-11-01T09:08:24.625Z,96.2
2017-11-01T09:09:23.791Z,96.3
2017-11-01T09:10:23.069Z,96.4
2017-11-01T09:11:22.096Z,96.5
2017-11-01T09:12:21.117Z,96.5
2017-11-01T09:13:20.406Z,96.3
2017-11-01T09:14:19.295Z,96.3
2017-11-01T09:15:18.579Z,96.3
2017-11-01T09:16:17.615Z,96.4
2017-11-01T09:17:16.633Z,96.4
2017-11-01T09:18:15.773Z,96.3
2017-11-01T09:19:14.650Z,96.3
2017-11-01T09:20:14.068Z,96.5
2017-11-01T09:21:12.946Z,96.7
2017-11-01T09:22:12.460Z,96.7
2017-11-01T09:23:11.506Z,96.7
2017-11-01T09:24:10.524Z,96.6
2017-11-01T09:25:09.547Z,96.7
2017-11-01T09:26:08.928Z,97.1
2017-11-01T09:27:08.070Z,97.2
2017-11-01T09:27:38.396Z,97.2
2017-11-01T09:28:08.724Z,97.2
2017-11-01T09:29:05.856Z,97.3
2017-11-01T09:30:05.006Z,97.2
2017-11-01T09:31:04.278Z,97.2
2017-11-01T09:32:03.285Z,97.2
2017-11-01T09:33:02.568Z,97.2
2017-11-01T09:34:01.223Z,97.2
2017-11-01T09:35:00.501Z,97.4
2017-11-01T09:35:59.771Z,97.3
2017-11-01T09:36:58.927Z,97.3
2017-11-01T09:37:58.074Z,97.3
2017-11-01T09:38:57.088Z,97.1
2017-11-01T09:39:56.089Z,97.1
2017-11-01T09:40:55.097Z,96.9
2017-11-01T09:42:53.259Z,96.6
2017-11-01T09:43:52.422Z,96.6
2017-11-01T09:44:51.561Z,96.6
2017-11-01T09:45:50.938Z,96.6
2017-11-01T09:46:49.721Z,96.7
2017-11-01T09:47:48.867Z,96.4
2017-11-01T09:48:48.247Z,96.2
2017-11-01T09:50:46.151Z,96.1
2017-11-01T09:51:45.559Z,95.9
2017-11-01T09:52:44.480Z,95.8
2017-11-01T09:53:43.893Z,95.8
2017-11-01T09:54:43.034Z,95.7
2017-11-01T09:55:41.944Z,95.3
2017-11-01T09:57:40.340Z,95.3
2017-11-01T09:58:38.982Z,95.4
2017-11-01T09:59:38.264Z,95.2
2017-11-01T10:00:37.658Z,95.2
2017-11-01T10:01:36.299Z,95.2
2017-11-01T10:02:35.813Z,95
2017-11-01T10:03:34.721Z,95
2017-11-01T10:04:33.735Z,94.5
2017-11-01T10:05:33.252Z,94.6
2017-11-01T10:06:32.264Z,94.6
2017-11-01T10:07:31.173Z,94.4
2017-11-01T10:08:30.191Z,94.7
2017-11-01T10:09:29.709Z,94.4
2017-11-01T10:10:28.493Z,94.7
2017-11-01T10:11:27.911Z,94.7
2017-11-01T10:12:27.055Z,94.8
2017-11-01T10:13:25.937Z,94.6
2017-11-01T10:14:25.212Z,94.6
2017-11-01T10:15:23.857Z,94.4
2017-11-01T10:16:23.374Z,94.5
2017-11-01T10:17:22.387Z,94.7
2017-11-01T10:18:21.404Z,94.2
2017-11-01T10:19:20.701Z,94.2
2017-11-01T10:20:19.557Z,94.1
2017-11-01T10:21:18.702Z,94.3
2017-11-01T10:21:49.036Z,94.3
2017-11-01T10:22:19.787Z,94.4
2017-11-01T10:23:16.803Z,93.9
2017-11-01T10:24:16.103Z,93.8
2017-11-01T10:25:15.362Z,93.8
2017-11-01T10:26:14.245Z,93.7
2017-11-01T10:27:13.659Z,93.6
2017-11-01T10:28:12.303Z,93.2
2017-11-01T10:30:10.712Z,93.3
2017-11-01T10:31:09.997Z,93.3
2017-11-01T10:32:08.781Z,93.2
2017-11-01T10:33:07.943Z,93.3
2017-11-01T10:34:07.092Z,92.6
2017-11-01T10:35:06.372Z,92.7
2017-11-01T10:36:05.756Z,92.7
2017-11-01T10:38:03.649Z,92.6
2017-11-01T10:39:02.798Z,92.4
2017-11-01T10:40:01.677Z,92.1
2017-11-01T10:41:00.829Z,92
2017-11-01T10:41:59.977Z,92.1
2017-11-01T10:42:59.250Z,92.2
2017-11-01T10:43:58.294Z,92.2
2017-11-01T10:44:57.592Z,92.2
2017-11-01T10:45:56.371Z,92
2017-11-01T10:46:55.522Z,91.9
2017-11-01T10:47:54.795Z,91.5
2017-11-01T10:48:53.815Z,91.5
2017-11-01T10:49:52.963Z,91.4
2017-11-01T10:50:51.982Z,91.5
2017-11-01T10:51:51.123Z,91.2
2017-11-01T10:52:50.509Z,91
2017-11-01T10:53:49.520Z,91
2017-11-01T10:54:48.425Z,91
2017-11-01T10:55:47.714Z,91
2017-11-01T10:56:47.100Z,90.9
2017-11-01T10:57:45.875Z,90.9
2017-11-01T10:58:45.390Z,90.5
2017-11-01T10:59:44.299Z,90.3
2017-11-01T11:00:43.448Z,90.2
2017-11-01T11:01:42.326Z,89.9
2017-11-01T11:02:41.601Z,89.5
2017-11-01T11:03:40.760Z,90
2017-11-01T11:04:40.274Z,89.3
2017-11-01T11:05:39.299Z,89.3
2017-11-01T11:06:38.217Z,89.5
2017-11-01T11:07:37.505Z,89.4
2017-11-01T11:08:36.391Z,89.7
2017-11-01T11:09:35.407Z,89.6
2017-11-01T11:10:34.697Z,89.9
2017-11-01T11:11:33.849Z,89.3
2017-11-01T11:12:32.869Z,89.3
2017-11-01T11:13:32.160Z,89.5
2017-11-01T11:14:31.305Z,89.3
2017-11-01T11:15:30.329Z,89.2
2017-11-01T11:16:29.617Z,89.1
2017-11-01T11:17:28.765Z,89.1
2017-11-01T11:18:27.656Z,89.4
2017-11-01T11:19:26.946Z,89.2
2017-11-01T11:20:26.098Z,88.6
2017-11-01T11:21:25.117Z,89.2
2017-11-01T11:22:24.420Z,88.8
2017-11-01T11:23:23.298Z,88.1
2017-11-01T11:24:22.692Z,88.7
2017-11-01T11:25:21.973Z,88.3
2017-11-01T11:26:20.729Z,88.7
2017-11-01T11:27:19.741Z,88.3
2017-11-01T11:28:19.256Z,88.4
2017-11-01T11:29:18.025Z,88.4
2017-11-01T11:30:17.548Z,88
2017-11-01T11:31:16.570Z,88.2
2017-11-01T11:32:15.713Z,88
2017-11-01T11:33:14.591Z,88.3
2017-11-01T11:34:14.240Z,88.4
2017-11-01T11:35:12.893Z,88
2017-11-01T11:36:12.044Z,87.7
2017-11-01T11:37:11.188Z,88.1
2017-11-01T11:38:10.355Z,87.3
2017-11-01T11:39:09.743Z,87.8
2017-11-01T11:40:08.756Z,87.9
2017-11-01T11:41:07.898Z,87.9
2017-11-01T11:42:06.909Z,87.5
2017-11-01T11:43:06.057Z,87.8
2017-11-01T11:44:05.072Z,88
2017-11-01T11:45:04.348Z,88
2017-11-01T11:46:03.640Z,87.7
2017-11-01T11:47:02.653Z,88.1
2017-11-01T11:48:01.933Z,88.1
2017-11-01T11:49:00.953Z,88
2017-11-01T11:50:00.363Z,88.2
2017-11-01T11:50:59.343Z,88
2017-11-01T11:51:30.178Z,88
2017-11-01T11:52:00.505Z,88
2017-11-01T11:52:31.092Z,88
2017-11-01T11:54:55.656Z,87.9
2017-11-01T11:55:55.168Z,87.8
2017-11-01T11:56:54.446Z,88
2017-11-01T11:57:53.238Z,87.8
2017-11-01T11:58:52.380Z,88
2017-11-01T11:59:51.519Z,88
2017-11-01T12:00:50.798Z,87.8
2017-11-01T12:01:49.813Z,88.3
2017-11-01T12:02:49.223Z,87.9
2017-11-01T12:03:48.239Z,87.7
2017-11-01T12:04:47.030Z,87.7
2017-11-01T12:05:46.176Z,87.8
2017-11-01T12:06:45.697Z,87.9
2017-11-01T12:07:44.857Z,88
2017-11-01T12:08:43.763Z,88.3
2017-11-01T12:09:43.036Z,88
2017-11-01T12:10:42.057Z,88.1
2017-11-01T12:11:41.583Z,88.1
2017-11-01T12:12:40.510Z,87.6
2017-11-01T12:13:39.671Z,87.9
2017-11-01T12:14:38.592Z,87.9
2017-11-01T12:15:37.603Z,87.9
2017-11-01T12:16:36.876Z,87.9
2017-11-01T12:17:36.030Z,87.9
2017-11-01T12:18:35.311Z,87.3
2017-11-01T12:19:34.454Z,87.5
2017-11-01T12:20:33.710Z,87.5
2017-11-01T12:21:32.983Z,87.6
2017-11-01T12:22:31.765Z,88
2017-11-01T12:23:30.917Z,87.8
2017-11-01T12:24:30.428Z,87.9
2017-11-01T12:25:29.462Z,87.8
2017-11-01T12:26:28.293Z,87.8
2017-11-01T12:27:27.440Z,87.7
2017-11-01T12:28:26.758Z,87.7
2017-11-01T12:29:25.775Z,87.5
2017-11-01T12:30:24.796Z,87.4
2017-11-01T12:31:24.319Z,87.8
2017-11-01T12:32:23.342Z,87.5
2017-11-01T12:32:53.546Z,87.5
2017-11-01T12:33:24.145Z,87.5
2017-11-01T12:33:54.471Z,87.5
2017-11-01T12:34:24.804Z,87.2
2017-11-01T12:34:55.407Z,87.2
2017-11-01T12:35:25.736Z,87.5
2017-11-01T12:35:55.823Z,87.5
2017-11-01T12:37:19.015Z,87.4
2017-11-01T12:38:18.029Z,87.4
2017-11-01T12:39:17.178Z,87.3
2017-11-01T12:40:16.332Z,87.4
2017-11-01T12:41:15.412Z,87.3
2017-11-01T12:42:14.934Z,86.9
2017-11-01T12:43:14.092Z,87
2017-11-01T12:44:13.016Z,87
2017-11-01T12:45:12.306Z,87
2017-11-01T12:45:42.661Z,87
2017-11-01T12:47:10.639Z,87
2017-11-01T12:48:09.788Z,86.8
2017-11-01T12:49:08.932Z,86.7
2017-11-01T12:50:08.080Z,86.6
2017-11-01T12:51:07.387Z,87
2017-11-01T12:52:06.175Z,86.8
2017-11-01T12:53:05.564Z,87.1
2017-11-01T12:54:04.715Z,86.5
2017-11-01T12:55:03.861Z,86.4
2017-11-01T12:56:02.777Z,86.3
2017-11-01T12:57:01.929Z,86.3
2017-11-01T12:58:01.068Z,86.5
2017-11-01T12:59:00.100Z,86.7
2017-11-01T12:59:59.611Z,87
2017-11-01T13:00:58.629Z,86.5
2017-11-01T13:01:57.774Z,86.7
2017-11-01T13:02:57.052Z,86.8
2017-11-01T13:03:56.053Z,86.7
2017-11-01T13:04:55.329Z,86.9
2017-11-01T13:05:54.100Z,86.8
2017-11-01T13:06:53.483Z,86.7
2017-11-01T13:07:52.496Z,87.1
2017-11-01T13:08:52.021Z,86.8
2017-11-01T13:09:51.032Z,86.9
2017-11-01T13:10:50.181Z,86.8
2017-11-01T13:11:49.060Z,86.7
2017-11-01T13:12:48.446Z,86.8
2017-11-01T13:13:47.451Z,86.4
2017-11-01T13:14:46.744Z,86.5
2017-11-01T13:15:45.757Z,86.8
2017-11-01T13:16:44.774Z,86.9
2017-11-01T13:17:44.058Z,86.9